createdAt,value
2018-01-21T00:01:19.136Z,91.90
2018-01-21T00:03:47.454Z,61.90
2018-01-21T00:06:14.964Z,64.25
2018-01-21T00:08:42.611Z,66.78
2018-01-21T00:11:10.144Z,56.20
2018-01-21T00:13:37.678Z,64.60
2018-01-21T00:16:05.221Z,55.55
2018-01-21T00:18:33.613Z,66.03
2018-01-21T00:21:01.370Z,54.58
2018-01-21T00:23:28.929Z,50.90
2018-01-21T00:25:56.468Z,54.90
2018-01-21T00:28:23.984Z,48.90
2018-01-21T00:30:51.525Z,45.63
2018-01-21T00:33:19.064Z,50.28
2018-01-21T00:35:46.633Z,47.67
2018-01-21T00:38:14.243Z,49.45
2018-01-21T00:40:41.776Z,47.62
2018-01-21T00:43:09.310Z,49.00
2018-01-21T00:45:36.879Z,53.00
2018-01-21T00:48:04.447Z,51.25
2018-01-21T00:50:32.079Z,56.10
2018-01-21T00:53:00.411Z,44.00
2018-01-21T00:55:28.054Z,49.00
2018-01-21T00:57:55.664Z,49.35
2018-01-21T01:00:23.186Z,50.08
2018-01-21T01:02:50.768Z,50.90
2018-01-21T01:05:18.282Z,53.35
2018-01-21T01:07:45.926Z,49.67
2018-01-21T01:10:13.460Z,52.33
2018-01-21T01:12:41.067Z,53.25
2018-01-21T01:15:08.739Z,52.15
2018-01-21T01:17:36.387Z,58.35
2018-01-21T01:20:03.938Z,58.13
2018-01-21T01:22:31.562Z,56.97
2018-01-21T01:24:59.085Z,56.05
2018-01-21T01:27:26.659Z,56.15
2018-01-21T01:29:54.177Z,53.42
2018-01-21T01:32:27.483Z,60.58
2018-01-21T01:34:55.041Z,56.25
2018-01-21T01:37:22.571Z,61.20
2018-01-21T01:39:50.136Z,57.03
2018-01-21T01:42:17.683Z,55.35
2018-01-21T01:44:46.004Z,53.30
2018-01-21T01:47:13.563Z,52.55
2018-01-21T01:49:41.148Z,53.72
2018-01-21T01:52:08.674Z,49.92
2018-01-21T01:54:36.179Z,48.75
2018-01-21T01:57:03.711Z,55.60
2018-01-21T01:59:31.258Z,55.12
2018-01-21T02:01:58.799Z,51.97
2018-01-21T02:04:26.338Z,48.40
2018-01-21T02:06:53.899Z,47.97
2018-01-21T02:09:21.474Z,49.08
2018-01-21T02:11:49.162Z,45.58
2018-01-21T02:14:16.656Z,45.83
2018-01-21T02:16:44.242Z,39.92
2018-01-21T02:19:11.799Z,39.40
2018-01-21T02:21:39.799Z,37.33
2018-01-21T02:24:07.307Z,37.22
2018-01-21T02:26:34.852Z,36.60
2018-01-21T02:29:02.363Z,33.63
2018-01-21T02:31:30.037Z,30.37
2018-01-21T02:33:57.561Z,26.67
2018-01-21T02:36:25.963Z,28.17
2018-01-21T02:38:53.473Z,23.15
2018-01-21T02:41:22.593Z,27.15
2018-01-21T02:43:50.897Z,29.55
2018-01-21T02:46:18.430Z,32.90
2018-01-21T02:48:46.728Z,31.83
2018-01-21T02:51:14.287Z,30.48
2018-01-21T02:53:41.793Z,29.60
2018-01-21T02:56:09.410Z,33.17
2018-01-21T02:58:36.923Z,31.83
2018-01-21T03:01:04.508Z,33.00
2018-01-21T03:03:33.355Z,40.88
2018-01-21T03:06:00.979Z,35.00
2018-01-21T03:08:28.495Z,30.52
2018-01-21T03:10:56.096Z,37.00
2018-01-21T03:13:23.631Z,37.15
2018-01-21T03:15:51.922Z,30.95
2018-01-21T03:18:19.471Z,29.83
2018-01-21T03:20:47.036Z,32.17
2018-01-21T03:23:14.630Z,30.58
2018-01-21T03:25:42.140Z,27.80
2018-01-21T03:28:10.459Z,27.05
2018-01-21T03:30:37.967Z,27.77
2018-01-21T03:33:06.298Z,26.70
2018-01-21T03:35:33.819Z,32.50
2018-01-21T03:38:01.374Z,30.67
2018-01-21T03:40:29.680Z,31.37
2018-01-21T03:42:57.223Z,36.25
2018-01-21T03:45:24.737Z,32.97
2018-01-21T03:47:52.357Z,29.15
2018-01-21T03:50:19.870Z,32.05
2018-01-21T03:52:47.430Z,28.15
2018-01-21T03:55:14.985Z,26.77
2018-01-21T03:57:42.584Z,30.05
2018-01-21T04:00:10.090Z,28.25
2018-01-21T04:02:37.632Z,23.85
2018-01-21T04:05:05.270Z,26.00
2018-01-21T04:07:32.811Z,23.45
2018-01-21T04:10:00.343Z,25.02
2018-01-21T04:12:27.883Z,27.42
2018-01-21T04:14:55.994Z,26.40
2018-01-21T04:17:24.312Z,29.55
2018-01-21T04:19:51.822Z,28.10
2018-01-21T04:22:20.279Z,28.75
2018-01-21T04:24:47.847Z,28.55
2018-01-21T04:27:15.452Z,27.77
2018-01-21T04:29:43.002Z,25.67
2018-01-21T04:32:10.530Z,26.23
2018-01-21T04:34:38.142Z,29.58
2018-01-21T04:37:05.786Z,23.70
2018-01-21T04:39:33.344Z,25.20
2018-01-21T04:42:00.866Z,21.90
2018-01-21T04:44:28.470Z,23.38
2018-01-21T04:46:55.995Z,21.67
2018-01-21T04:49:24.306Z,21.85
2018-01-21T04:51:52.637Z,21.77
2018-01-21T04:54:20.201Z,23.15
2018-01-21T04:56:47.972Z,27.37
2018-01-21T04:59:16.378Z,21.50
2018-01-21T05:01:43.930Z,25.12
2018-01-21T05:04:12.223Z,30.23
2018-01-21T05:06:39.747Z,23.98
2018-01-21T05:09:08.062Z,29.02
2018-01-21T05:11:35.616Z,26.83
2018-01-21T05:14:03.146Z,28.23
2018-01-21T05:16:31.461Z,29.15
2018-01-21T05:18:59.143Z,26.60
2018-01-21T05:21:26.669Z,31.87
2018-01-21T05:23:54.180Z,27.60
2018-01-21T05:26:21.718Z,29.45
2018-01-21T05:28:49.253Z,30.25
2018-01-21T05:31:16.903Z,30.20
2018-01-21T05:33:44.425Z,29.58
2018-01-21T05:36:12.754Z,30.62
2018-01-21T05:38:40.294Z,31.02
2018-01-21T05:41:07.863Z,34.72
2018-01-21T05:43:36.383Z,29.42
2018-01-21T05:46:04.771Z,30.67
2018-01-21T05:48:32.297Z,35.90
2018-01-21T05:50:59.866Z,29.65
2018-01-21T05:53:27.374Z,29.55
2018-01-21T05:55:55.697Z,33.22
2018-01-21T05:58:23.221Z,34.53
2018-01-21T06:00:51.523Z,39.92
2018-01-21T06:03:19.031Z,34.63
2018-01-21T06:05:46.640Z,36.33
2018-01-21T06:08:14.148Z,39.95
2018-01-21T06:10:41.713Z,42.90
2018-01-21T06:13:09.239Z,38.10
2018-01-21T06:15:36.877Z,41.13
2018-01-21T06:18:04.416Z,38.47
2018-01-21T06:20:32.722Z,36.58
2018-01-21T06:23:00.326Z,42.20
2018-01-21T06:25:27.856Z,34.08
2018-01-21T06:27:55.429Z,38.63
2018-01-21T06:30:22.952Z,35.47
2018-01-21T06:32:50.566Z,43.72
2018-01-21T06:35:18.159Z,37.85
2018-01-21T06:37:45.726Z,33.72
2018-01-21T06:40:13.273Z,32.20
2018-01-21T06:42:40.792Z,35.30
2018-01-21T06:45:08.320Z,32.60
2018-01-21T06:47:35.968Z,28.27
2018-01-21T06:50:03.612Z,28.30
2018-01-21T06:52:31.147Z,29.77
2018-01-21T06:54:58.743Z,28.70
2018-01-21T06:57:26.302Z,25.55
2018-01-21T06:59:53.856Z,28.62
2018-01-21T07:02:21.395Z,27.85
2018-01-21T07:04:49.879Z,34.63
2018-01-21T07:07:18.189Z,22.73
2018-01-21T07:09:45.760Z,29.92
2018-01-21T07:12:13.344Z,28.65
2018-01-21T07:14:40.841Z,24.55
2018-01-21T07:17:08.445Z,29.05
2018-01-21T07:19:36.071Z,25.92
2018-01-21T07:22:03.651Z,29.65
2018-01-21T07:24:31.188Z,26.55
2018-01-21T07:26:58.712Z,29.90
2018-01-21T07:29:26.275Z,25.75
2018-01-21T07:31:53.826Z,29.80
2018-01-21T07:34:21.342Z,31.30
2018-01-21T07:36:48.918Z,29.55
2018-01-21T07:39:16.559Z,27.90
2018-01-21T07:41:44.058Z,32.70
2018-01-21T07:44:11.599Z,29.17
2018-01-21T07:46:39.133Z,19.33
2018-01-21T07:49:06.640Z,26.58
2018-01-21T07:51:34.312Z,22.60
2018-01-21T07:54:01.924Z,21.48
2018-01-21T07:56:29.825Z,21.58
2018-01-21T07:58:57.351Z,20.80
2018-01-21T08:01:24.904Z,28.17
2018-01-21T08:03:52.450Z,22.23
2018-01-21T08:06:19.985Z,18.60
2018-01-21T08:08:48.400Z,24.02
2018-01-21T08:11:16.005Z,19.73
2018-01-21T08:13:43.525Z,21.75
2018-01-21T08:16:11.099Z,24.73
2018-01-21T08:18:38.647Z,29.50
2018-01-21T08:21:06.203Z,19.52
2018-01-21T08:23:33.827Z,25.80
2018-01-21T08:26:02.147Z,23.77
2018-01-21T08:28:29.900Z,19.20
2018-01-21T08:30:57.801Z,21.92
2018-01-21T08:33:25.305Z,18.77
2018-01-21T08:35:58.419Z,19.15
2018-01-21T08:38:31.559Z,20.20
2018-01-21T08:44:05.740Z,17.98
2018-01-21T08:46:33.271Z,21.35
2018-01-21T08:49:01.573Z,14.63
2018-01-21T08:51:29.133Z,17.98
2018-01-21T08:53:56.642Z,17.83
2018-01-21T08:56:24.262Z,17.45
2018-01-21T08:58:51.775Z,15.75
2018-01-21T09:01:20.097Z,16.87
2018-01-21T09:03:47.625Z,20.98
2018-01-21T09:06:16.021Z,30.42
2018-01-21T09:08:43.544Z,18.45
2018-01-21T09:11:11.860Z,16.12
2018-01-21T09:13:39.367Z,8.57
2018-01-21T09:16:06.895Z,10.75
2018-01-21T09:18:35.675Z,12.82
2018-01-21T09:21:03.215Z,13.93
2018-01-21T09:23:30.728Z,10.65
2018-01-21T09:25:58.268Z,11.12
2018-01-21T09:28:35.714Z,14.25
2018-01-21T09:31:04.026Z,11.27
2018-01-21T09:33:31.548Z,9.80
2018-01-21T09:35:59.898Z,10.32
2018-01-21T09:38:27.502Z,16.12
2018-01-21T09:40:55.073Z,14.57
2018-01-21T09:43:22.594Z,10.98
2018-01-21T09:45:50.941Z,12.95
2018-01-21T09:48:18.526Z,10.13
2018-01-21T09:50:46.120Z,16.30
2018-01-21T09:53:13.780Z,15.77
2018-01-21T09:55:41.310Z,14.77
2018-01-21T09:58:09.635Z,14.38
2018-01-21T10:00:37.214Z,15.35
2018-01-21T10:03:06.784Z,16.42
2018-01-21T10:05:34.304Z,11.50
2018-01-21T10:08:01.899Z,12.25
2018-01-21T10:10:29.536Z,14.75
2018-01-21T10:12:57.815Z,10.43
2018-01-21T10:15:26.118Z,12.32
2018-01-21T10:17:53.678Z,9.23
2018-01-21T10:20:21.212Z,11.50
2018-01-21T10:22:49.862Z,15.68
2018-01-21T10:25:18.214Z,10.57
2018-01-21T10:27:45.772Z,15.43
2018-01-21T10:30:13.338Z,17.35
2018-01-21T10:32:40.999Z,14.10
2018-01-21T10:35:08.632Z,16.67
2018-01-21T10:37:36.961Z,20.00
2018-01-21T10:40:04.547Z,17.23
2018-01-21T10:42:32.879Z,19.15
2018-01-21T10:45:00.531Z,14.07
2018-01-21T10:47:28.138Z,23.45
2018-01-21T10:49:55.786Z,17.65
2018-01-21T10:52:23.328Z,20.40
2018-01-21T10:54:50.898Z,13.10
2018-01-21T10:57:18.512Z,22.95
2018-01-21T10:59:46.852Z,18.67
2018-01-21T11:02:14.420Z,16.40
2018-01-21T11:04:41.963Z,16.73
2018-01-21T11:07:10.481Z,18.50
2018-01-21T11:09:38.861Z,12.75
2018-01-21T11:12:06.484Z,14.38
2018-01-21T11:14:34.004Z,18.30
2018-01-21T11:17:02.256Z,11.52
2018-01-21T11:19:30.579Z,13.88
2018-01-21T11:21:58.095Z,18.98
2018-01-21T11:24:25.634Z,14.18
2018-01-21T11:26:53.915Z,15.15
2018-01-21T11:29:22.212Z,13.93
2018-01-21T11:31:49.841Z,17.40
2018-01-21T11:34:17.351Z,15.98
2018-01-21T11:36:45.022Z,12.60
2018-01-21T11:39:12.571Z,25.95
2018-01-21T11:41:40.106Z,12.85
2018-01-21T11:44:07.640Z,16.00
2018-01-21T11:46:35.335Z,14.27
2018-01-21T11:49:02.848Z,12.75
2018-01-21T11:51:30.379Z,16.73
2018-01-21T11:53:57.891Z,16.98
2018-01-21T11:56:26.354Z,27.42
2018-01-21T11:58:53.859Z,45.53
2018-01-21T12:01:22.363Z,22.83
2018-01-21T12:03:49.937Z,17.20
2018-01-21T12:06:17.498Z,22.42
2018-01-21T12:08:45.046Z,22.77
2018-01-21T12:11:12.620Z,16.52
2018-01-21T12:13:40.157Z,17.17
2018-01-21T12:16:07.678Z,16.58
2018-01-21T12:18:35.226Z,16.17
2018-01-21T12:21:03.560Z,13.95
2018-01-21T12:23:31.136Z,15.75
2018-01-21T12:25:58.656Z,12.88
2018-01-21T12:28:26.191Z,11.65
2018-01-21T12:30:53.727Z,10.20
2018-01-21T12:33:21.302Z,18.17
2018-01-21T12:35:49.714Z,15.98
2018-01-21T12:38:17.276Z,24.27
2018-01-21T12:40:44.799Z,22.65
2018-01-21T12:43:13.107Z,17.50
2018-01-21T12:45:40.622Z,20.73
2018-01-21T12:48:08.156Z,13.35
2018-01-21T12:50:35.770Z,18.10
2018-01-21T12:53:03.373Z,24.52
2018-01-21T12:55:30.943Z,16.20
2018-01-21T12:57:58.566Z,15.15
2018-01-21T13:00:26.082Z,13.15
2018-01-21T13:02:54.384Z,16.95
2018-01-21T13:05:21.961Z,21.60
2018-01-21T13:07:49.526Z,32.35
2018-01-21T13:10:17.069Z,22.48
2018-01-21T13:12:44.638Z,14.75
2018-01-21T13:15:12.144Z,14.75
2018-01-21T13:17:39.747Z,17.65
2018-01-21T13:20:07.255Z,21.45
2018-01-21T13:22:34.880Z,18.35
2018-01-21T13:25:02.424Z,17.12
2018-01-21T13:27:30.023Z,14.73
2018-01-21T13:29:57.507Z,14.77
2018-01-21T13:32:25.073Z,15.73
2018-01-21T13:34:53.363Z,18.77
2018-01-21T13:37:26.287Z,15.65
2018-01-21T13:39:53.893Z,18.45
2018-01-21T13:42:22.302Z,16.55
2018-01-21T13:44:49.814Z,23.17
2018-01-21T13:47:17.359Z,21.05
2018-01-21T13:49:44.925Z,19.60
2018-01-21T13:52:12.615Z,18.70
2018-01-21T13:54:40.178Z,17.65
2018-01-21T13:57:08.558Z,16.48
2018-01-21T13:59:36.841Z,17.02
2018-01-21T14:02:04.663Z,14.27
2018-01-21T14:04:32.277Z,16.35
2018-01-21T14:07:00.665Z,11.65
2018-01-21T14:09:28.228Z,9.02
2018-01-21T14:11:55.759Z,12.95
2018-01-21T14:14:24.028Z,9.57
2018-01-21T14:16:52.387Z,7.30
2018-01-21T14:19:21.197Z,14.20
2018-01-21T14:21:49.624Z,7.12
2018-01-21T14:24:17.535Z,6.90
2018-01-21T14:26:45.101Z,9.70
2018-01-21T14:29:13.384Z,7.90
2018-01-21T14:31:41.925Z,8.43
2018-01-21T14:34:09.463Z,11.05
2018-01-21T14:36:37.285Z,12.48
2018-01-21T14:39:04.808Z,8.90
2018-01-21T14:41:32.398Z,9.30
2018-01-21T14:43:59.915Z,7.07
2018-01-21T14:46:27.468Z,11.50
2018-01-21T14:48:55.003Z,8.38
2018-01-21T14:51:23.657Z,14.48
2018-01-21T14:53:51.188Z,13.57
2018-01-21T14:56:18.806Z,14.52
2018-01-21T14:58:46.325Z,21.62
2018-01-21T15:01:13.861Z,12.18
2018-01-21T15:03:41.380Z,17.48
2018-01-21T15:06:09.002Z,10.57
2018-01-21T15:08:36.504Z,18.67
2018-01-21T15:11:04.111Z,13.43
2018-01-21T15:13:31.653Z,11.02
2018-01-21T15:15:59.297Z,14.43
2018-01-21T15:18:26.814Z,11.65
2018-01-21T15:20:54.367Z,20.25
2018-01-21T15:23:22.676Z,17.75
2018-01-21T15:25:50.224Z,16.08
2018-01-21T15:28:18.503Z,16.23
2018-01-21T15:30:46.900Z,11.25
2018-01-21T15:33:14.445Z,9.93
2018-01-21T15:35:42.798Z,13.48
2018-01-21T15:38:10.355Z,20.17
2018-01-21T15:40:38.020Z,20.50
2018-01-21T15:43:07.161Z,12.55
2018-01-21T15:45:34.715Z,13.40
2018-01-21T15:48:02.247Z,17.77
2018-01-21T15:50:30.550Z,13.82
2018-01-21T15:52:58.165Z,12.20
2018-01-21T15:55:25.778Z,13.80
2018-01-21T15:57:53.346Z,12.48
2018-01-21T16:00:20.908Z,26.05
2018-01-21T16:02:48.433Z,16.10
2018-01-21T16:05:16.764Z,15.35
2018-01-21T16:07:44.357Z,13.50
2018-01-21T16:10:12.985Z,17.85
2018-01-21T16:12:40.555Z,15.35
2018-01-21T16:15:08.184Z,18.12
2018-01-21T16:17:36.489Z,15.48
2018-01-21T16:20:13.976Z,16.42
2018-01-21T16:22:41.587Z,12.45
2018-01-21T16:25:09.167Z,11.57
2018-01-21T16:27:37.482Z,9.63
2018-01-21T16:30:05.060Z,14.73
2018-01-21T16:32:32.607Z,21.27
2018-01-21T16:35:00.175Z,16.37
2018-01-21T16:37:39.590Z,15.13
2018-01-21T16:40:07.124Z,12.00
2018-01-21T16:42:34.660Z,13.43
2018-01-21T16:45:02.994Z,22.10
2018-01-21T16:47:31.514Z,17.25
2018-01-21T16:49:59.072Z,12.80
2018-01-21T16:52:26.576Z,8.48
2018-01-21T16:54:54.150Z,11.30
2018-01-21T16:57:31.611Z,6.30
2018-01-21T16:59:59.164Z,9.65
2018-01-21T17:02:27.458Z,10.88
2018-01-21T17:04:55.104Z,13.98
2018-01-21T17:07:23.408Z,9.43
2018-01-21T17:09:51.002Z,9.18
2018-01-21T17:12:18.605Z,10.55
2018-01-21T17:14:47.979Z,7.72
2018-01-21T17:17:15.446Z,12.93
2018-01-21T17:19:43.784Z,7.35
2018-01-21T17:22:11.301Z,8.35
2018-01-21T17:24:38.873Z,17.80
2018-01-21T17:27:06.398Z,17.40
2018-01-21T17:29:34.743Z,12.65
2018-01-21T17:32:02.311Z,14.18
2018-01-21T17:34:29.853Z,12.73
2018-01-21T17:36:57.389Z,11.43
2018-01-21T17:39:25.028Z,13.13
2018-01-21T17:41:52.568Z,9.30
2018-01-21T17:44:20.173Z,12.18
2018-01-21T17:46:47.678Z,50.83
2018-01-21T17:49:15.220Z,14.15
2018-01-21T17:51:42.807Z,14.20
2018-01-21T17:54:11.183Z,10.90
2018-01-21T17:56:38.676Z,11.05
2018-01-21T17:59:06.342Z,16.73
2018-01-21T18:01:33.863Z,11.15
2018-01-21T18:04:01.389Z,14.27
2018-01-21T18:06:28.924Z,13.00
2018-01-21T18:08:56.483Z,16.58
2018-01-21T18:11:24.026Z,14.10
2018-01-21T18:13:51.584Z,10.88
2018-01-21T18:16:20.076Z,14.13
2018-01-21T18:18:47.645Z,11.75
2018-01-21T18:21:15.218Z,11.50
2018-01-21T18:23:42.790Z,12.77
2018-01-21T18:26:10.352Z,9.00
2018-01-21T18:28:37.862Z,14.45
2018-01-21T18:31:06.193Z,11.68
2018-01-21T18:33:33.743Z,13.27
2018-01-21T18:36:01.277Z,11.07
2018-01-21T18:38:28.893Z,12.70
2018-01-21T18:40:56.502Z,12.00
2018-01-21T18:43:27.784Z,12.18
2018-01-21T18:45:57.659Z,11.35
2018-01-21T18:48:25.248Z,9.52
2018-01-21T18:50:52.881Z,8.38
2018-01-21T18:53:20.427Z,14.20
2018-01-21T18:55:47.942Z,17.65
2018-01-21T18:58:15.483Z,12.02
2018-01-21T19:00:43.079Z,9.63
2018-01-21T19:03:11.405Z,12.05
2018-01-21T19:05:38.959Z,13.13
2018-01-21T19:08:06.498Z,12.75
2018-01-21T19:10:34.064Z,13.35
2018-01-21T19:13:01.656Z,13.23
2018-01-21T19:15:29.209Z,9.60
2018-01-21T19:17:56.763Z,11.32
2018-01-21T19:20:24.280Z,17.20
2018-01-21T19:22:51.886Z,9.45
2018-01-21T19:25:19.444Z,13.05
2018-01-21T19:27:46.975Z,8.30
2018-01-21T19:30:14.541Z,12.23
2018-01-21T19:32:42.136Z,13.43
2018-01-21T19:35:09.662Z,11.48
2018-01-21T19:37:37.200Z,10.40
2018-01-21T19:43:24.056Z,12.32
2018-01-21T19:45:51.632Z,8.77
2018-01-21T19:48:19.260Z,11.68
2018-01-21T19:50:47.539Z,11.05
2018-01-21T19:53:15.160Z,11.63
2018-01-21T19:55:42.701Z,14.93
2018-01-21T19:58:10.403Z,11.00
2018-01-21T20:00:38.780Z,9.77
2018-01-21T20:03:07.180Z,12.07
2018-01-21T20:05:34.724Z,10.85
2018-01-21T20:08:03.027Z,10.63
2018-01-21T20:10:30.547Z,10.05
2018-01-21T20:12:58.092Z,9.50
2018-01-21T20:15:30.044Z,9.35
2018-01-21T20:17:57.676Z,14.63
2018-01-21T20:20:25.213Z,11.35
2018-01-21T20:22:52.780Z,12.18
2018-01-21T20:25:20.305Z,16.77
2018-01-21T20:27:47.859Z,10.75
2018-01-21T20:30:15.367Z,9.45
2018-01-21T20:32:42.864Z,15.77
2018-01-21T20:35:20.770Z,14.43
2018-01-21T20:37:48.397Z,12.80
2018-01-21T20:40:15.958Z,9.73
2018-01-21T20:42:43.541Z,13.38
2018-01-21T20:45:11.229Z,8.50
2018-01-21T20:47:39.568Z,15.23
2018-01-21T20:50:07.129Z,16.00
2018-01-21T20:52:49.461Z,15.57
2018-01-21T20:55:17.090Z,13.60
2018-01-21T20:57:44.672Z,13.65
2018-01-21T21:00:12.225Z,14.80
2018-01-21T21:02:39.893Z,10.90
2018-01-21T21:05:07.785Z,16.55
2018-01-21T21:07:35.362Z,16.02
2018-01-21T21:10:02.912Z,16.62
2018-01-21T21:12:31.217Z,11.65
2018-01-21T21:14:58.727Z,13.27
2018-01-21T21:17:26.283Z,12.55
2018-01-21T21:19:53.832Z,20.20
2018-01-21T21:22:21.457Z,15.88
2018-01-21T21:24:49.056Z,12.48
2018-01-21T21:27:16.630Z,13.75
2018-01-21T21:29:48.059Z,13.80
2018-01-21T21:32:15.775Z,12.05
2018-01-21T21:34:43.335Z,11.25
2018-01-21T21:37:11.879Z,12.00
2018-01-21T21:39:39.436Z,14.57
2018-01-21T21:42:06.981Z,13.55
2018-01-21T21:44:34.507Z,12.48
2018-01-21T21:47:02.031Z,12.52
2018-01-21T21:49:30.345Z,16.48
2018-01-21T21:51:57.940Z,14.85
2018-01-21T21:54:25.532Z,14.00
2018-01-21T21:56:53.843Z,10.48
2018-01-21T21:59:21.367Z,11.52
2018-01-21T22:01:49.707Z,15.65
2018-01-21T22:04:17.404Z,17.37
2018-01-21T22:06:45.802Z,12.23
2018-01-21T22:09:13.410Z,12.88
2018-01-21T22:11:41.033Z,12.00
2018-01-21T22:14:08.519Z,13.15
2018-01-21T22:16:36.117Z,12.65
2018-01-21T22:19:03.616Z,15.05
2018-01-21T22:21:31.316Z,13.30
2018-01-21T22:23:59.256Z,12.18
2018-01-21T22:26:26.799Z,16.33
2018-01-21T22:28:54.325Z,15.73
2018-01-21T22:31:21.870Z,16.27
2018-01-21T22:33:49.414Z,18.65
2018-01-21T22:36:16.975Z,11.77
2018-01-21T22:38:44.595Z,16.12
2018-01-21T22:41:12.151Z,14.68
2018-01-21T22:43:39.678Z,15.20
2018-01-21T22:46:07.198Z,14.02
2018-01-21T22:48:38.966Z,12.90
2018-01-21T22:51:06.557Z,17.15
2018-01-21T22:53:34.212Z,13.98
2018-01-21T22:56:03.253Z,14.38
2018-01-21T22:58:30.851Z,17.48
2018-01-21T23:00:58.470Z,18.48
2018-01-21T23:03:26.051Z,15.75
2018-01-21T23:05:53.688Z,19.00
2018-01-21T23:08:21.220Z,16.83
2018-01-21T23:10:49.551Z,17.52
2018-01-21T23:13:17.058Z,25.15
2018-01-21T23:15:45.377Z,15.95
2018-01-21T23:18:12.903Z,20.55
2018-01-21T23:20:52.848Z,22.52
2018-01-21T23:23:21.129Z,26.30
2018-01-21T23:25:49.434Z,22.25
2018-01-21T23:28:16.979Z,20.50
2018-01-21T23:30:44.739Z,19.00
2018-01-21T23:33:13.095Z,20.83
2018-01-21T23:35:41.511Z,21.83
2018-01-21T23:38:09.051Z,26.42
2018-01-21T23:40:38.279Z,24.05
2018-01-21T23:43:05.806Z,19.35
2018-01-21T23:45:34.104Z,21.35
2018-01-21T23:48:01.607Z,22.50
2018-01-21T23:50:29.136Z,22.00
2018-01-21T23:52:56.662Z,18.58
2018-01-21T23:55:24.210Z,18.87
2018-01-21T23:57:52.599Z,27.55
